Time;durP1;ratioP1;P1;durP2;ratioP2;P2;SDS_P1;SDS_P2;PMS_P1;PMS_P2;Temp;Humidity;BMP_temperature;BMP_pressure;BME280_temperature;BME280_humidity;BME280_pressure;Samples;Min_cycle;Max_cycle;Signal;HPM_P1;HPM_P2
2023/07/10 00:01:55;;;;;;;6.53;2.90;;;17.80;99.90;;;;;;4948704;28;20252;-63
2023/07/10 00:04:23;;;;;;;4.20;3.20;;;17.80;99.90;;;;;;4966354;28;20195;-63
2023/07/10 00:06:52;;;;;;;4.93;2.70;;;17.80;99.90;;;;;;4941437;28;20238;-63
2023/07/10 00:09:21;;;;;;;8.53;2.90;;;17.80;99.90;;;;;;4967104;28;20203;-63
2023/07/10 00:11:51;;;;;;;3.80;2.83;;;17.80;99.90;;;;;;4964498;28;20238;-63
2023/07/10 00:14:22;;;;;;;3.43;2.83;;;17.80;99.90;;;;;;4935238;29;20204;-63
2023/07/10 00:16:51;;;;;;;2.77;2.57;;;17.70;99.90;;;;;;4963276;28;20195;-63
2023/07/10 00:19:20;;;;;;;6.00;2.80;;;17.70;99.90;;;;;;4957075;28;20195;-63
2023/07/10 00:21:51;;;;;;;2.90;2.63;;;17.70;99.90;;;;;;4962842;28;20231;-63
2023/07/10 00:24:21;;;;;;;4.03;3.00;;;17.60;99.90;;;;;;4964932;28;20278;-63
2023/07/10 00:26:49;;;;;;;4.90;2.90;;;17.50;99.90;;;;;;4959119;28;20200;-63
2023/07/10 00:29:21;;;;;;;3.40;2.67;;;17.50;99.90;;;;;;4941797;28;20216;-63
2023/07/10 00:31:50;;;;;;;4.43;3.10;;;17.40;99.90;;;;;;4958846;28;20542;-63
2023/07/10 00:34:18;;;;;;;2.60;2.40;;;17.40;99.90;;;;;;4963339;28;20717;-63
2023/07/10 00:36:51;;;;;;;4.57;2.93;;;17.30;99.90;;;;;;4953305;28;20196;-63
2023/07/10 00:39:24;;;;;;;6.23;2.90;;;17.30;99.90;;;;;;4949751;28;20271;-64
2023/07/10 00:41:57;;;;;;;3.17;2.93;;;17.20;99.90;;;;;;4963639;28;20196;-63
2023/07/10 00:44:32;;;;;;;4.23;2.80;;;17.20;99.90;;;;;;4956606;28;20200;-63
2023/07/10 00:47:06;;;;;;;5.27;3.30;;;17.20;99.90;;;;;;4944065;28;20195;-63
2023/07/10 00:49:45;;;;;;;3.33;3.07;;;17.10;99.90;;;;;;4954887;28;20254;-63
2023/07/10 00:52:17;;;;;;;5.90;3.20;;;17.10;99.90;;;;;;4954347;28;20200;-63
2023/07/10 00:54:50;;;;;;;3.53;3.17;;;17.10;99.90;;;;;;4938375;29;20227;-63
2023/07/10 00:57:23;;;;;;;3.37;2.70;;;17.10;99.90;;;;;;4957299;28;20657;-63
2023/07/10 00:59:52;;;;;;;5.03;3.30;;;17.10;99.90;;;;;;4964153;28;20752;-63
2023/07/10 01:02:24;;;;;;;3.93;3.50;;;17.00;99.90;;;;;;4954326;28;20188;-62
2023/07/10 01:05:00;;;;;;;5.20;3.70;;;17.00;99.90;;;;;;4963058;28;20193;-63
2023/07/10 01:07:33;;;;;;;4.90;3.47;;;17.00;99.90;;;;;;4956236;28;20206;-63
2023/07/10 01:10:07;;;;;;;5.23;3.33;;;17.00;99.90;;;;;;4954613;28;20282;-63
2023/07/10 01:12:36;;;;;;;5.73;3.63;;;16.90;99.90;;;;;;4973194;28;20200;-63
2023/07/10 01:15:06;;;;;;;4.07;3.57;;;16.90;99.90;;;;;;4959597;28;20255;-63
2023/07/10 01:17:35;;;;;;;5.90;3.80;;;16.90;99.90;;;;;;4938215;28;20588;-64
2023/07/10 01:20:29;;;;;;;7.50;3.43;;;16.90;99.90;;;;;;4956802;28;20279;-63
2023/07/10 01:22:59;;;;;;;10.43;3.43;;;16.90;99.90;;;;;;4946857;28;20219;-63
2023/07/10 01:25:30;;;;;;;4.77;3.50;;;17.00;99.90;;;;;;4954182;28;20196;-63
2023/07/10 01:27:58;;;;;;;4.40;4.00;;;17.00;99.90;;;;;;4954400;28;20769;-63
2023/07/10 01:30:33;;;;;;;5.03;3.93;;;16.90;99.90;;;;;;4966166;28;20219;-63
2023/07/10 01:33:02;;;;;;;5.17;3.27;;;16.90;99.90;;;;;;4958122;28;20261;-64
2023/07/10 01:35:33;;;;;;;9.53;3.90;;;16.90;99.90;;;;;;4953994;28;20196;-60
2023/07/10 01:38:02;;;;;;;5.57;3.87;;;16.80;99.90;;;;;;4955904;28;20196;-63
2023/07/10 01:40:36;;;;;;;4.47;3.90;;;16.80;99.90;;;;;;4954082;28;20223;-62
2023/07/10 01:43:04;;;;;;;5.60;3.60;;;16.80;99.90;;;;;;4942543;29;20192;-63
2023/07/10 01:45:42;;;;;;;5.23;3.73;;;16.90;99.90;;;;;;4948715;28;20200;-63
2023/07/10 01:48:12;;;;;;;6.57;4.33;;;16.80;99.90;;;;;;4959856;28;20195;-63
2023/07/10 01:50:41;;;;;;;6.60;4.17;;;16.90;99.90;;;;;;4953827;28;20215;-63
2023/07/10 01:53:11;;;;;;;6.77;4.03;;;16.90;99.90;;;;;;4951592;28;20298;-63
2023/07/10 01:55:44;;;;;;;6.80;4.10;;;16.80;99.90;;;;;;4953897;28;20236;-63
2023/07/10 01:58:12;;;;;;;5.87;4.47;;;16.80;99.90;;;;;;4963665;28;20215;-63
2023/07/10 02:00:41;;;;;;;6.67;4.20;;;16.80;99.90;;;;;;4953650;28;20201;-63
2023/07/10 02:03:10;;;;;;;6.17;4.20;;;16.80;99.90;;;;;;4953421;28;20218;-63
2023/07/10 02:05:38;;;;;;;8.60;4.13;;;16.80;99.90;;;;;;4962132;28;20309;-63
2023/07/10 02:08:07;;;;;;;5.63;4.37;;;16.80;99.90;;;;;;4960739;28;20650;-63
2023/07/10 02:10:36;;;;;;;5.27;3.93;;;16.70;99.90;;;;;;4953773;28;20196;-63
2023/07/10 02:13:12;;;;;;;7.30;4.40;;;16.70;99.90;;;;;;4961868;28;20231;-63
2023/07/10 02:15:41;;;;;;;5.97;4.37;;;16.60;99.90;;;;;;4963859;28;20206;-63
2023/07/10 02:18:09;;;;;;;5.77;4.53;;;16.50;99.90;;;;;;4959574;28;20202;-63
2023/07/10 02:20:39;;;;;;;5.97;4.33;;;16.50;99.90;;;;;;4963092;28;20582;-63
2023/07/10 02:23:07;;;;;;;7.70;4.47;;;16.50;99.90;;;;;;4963630;28;20196;-63
2023/07/10 02:25:37;;;;;;;5.63;4.43;;;16.40;99.90;;;;;;4953249;28;20539;-63
2023/07/10 02:28:07;;;;;;;7.53;4.60;;;16.40;99.90;;;;;;4953940;28;20552;-63
2023/07/10 02:30:38;;;;;;;7.00;4.60;;;16.40;99.90;;;;;;4943418;28;20192;-63
2023/07/10 02:33:06;;;;;;;7.57;5.03;;;16.40;99.90;;;;;;4950423;28;20244;-63
2023/07/10 02:35:34;;;;;;;6.20;4.67;;;16.30;99.90;;;;;;4959819;28;20236;-63
2023/07/10 02:38:03;;;;;;;5.63;5.00;;;16.30;99.90;;;;;;4966022;28;20196;-63
2023/07/10 02:40:31;;;;;;;7.20;4.73;;;16.20;99.90;;;;;;4957564;28;20663;-63
2023/07/10 02:43:01;;;;;;;6.23;4.43;;;16.20;99.90;;;;;;4966233;28;20193;-63
2023/07/10 02:45:30;;;;;;;7.10;4.73;;;16.10;99.90;;;;;;4966223;28;20609;-63
2023/07/10 02:47:58;;;;;;;6.10;4.40;;;16.10;99.90;;;;;;4976383;28;20198;-63
2023/07/10 02:50:26;;;;;;;7.77;4.87;;;16.10;99.90;;;;;;4958443;28;20238;-63
2023/07/10 02:52:55;;;;;;;6.27;4.70;;;16.00;99.90;;;;;;4966905;28;20219;-63
2023/07/10 02:55:23;;;;;;;7.43;4.80;;;16.00;99.90;;;;;;4947198;28;20234;-64
2023/07/10 02:57:51;;;;;;;6.37;4.90;;;15.90;99.90;;;;;;4956917;28;20202;-63
2023/07/10 03:00:21;;;;;;;5.83;4.87;;;15.90;99.90;;;;;;4956590;29;20259;-63
2023/07/10 03:02:53;;;;;;;6.30;4.83;;;15.90;99.90;;;;;;4949848;28;20204;-63
2023/07/10 03:05:22;;;;;;;4.90;4.50;;;15.80;99.90;;;;;;4957767;28;20181;-63
2023/07/10 03:07:50;;;;;;;9.43;5.17;;;15.80;99.90;;;;;;4958820;28;20205;-63
2023/07/10 03:10:20;;;;;;;9.43;5.07;;;15.70;99.90;;;;;;4963303;28;20195;-63
2023/07/10 03:12:48;;;;;;;6.43;5.10;;;15.70;99.90;;;;;;4957242;28;20558;-64
2023/07/10 03:15:17;;;;;;;8.20;5.30;;;15.70;99.90;;;;;;4973037;28;20211;-63
2023/07/10 03:17:47;;;;;;;5.40;4.77;;;15.60;99.90;;;;;;4965742;28;20202;-63
2023/07/10 03:20:15;;;;;;;8.87;5.57;;;15.50;99.90;;;;;;4956888;28;20192;-63
2023/07/10 03:22:43;;;;;;;7.83;5.20;;;15.50;99.90;;;;;;4968480;28;20186;-63
2023/07/10 03:25:12;;;;;;;8.70;5.43;;;15.40;99.90;;;;;;4961168;28;20610;-63
2023/07/10 03:27:40;;;;;;;6.33;5.20;;;15.40;99.90;;;;;;4958823;28;20278;-63
2023/07/10 03:30:09;;;;;;;10.27;5.33;;;15.30;99.90;;;;;;4967123;28;20201;-63
2023/07/10 03:32:37;;;;;;;5.93;5.20;;;15.30;99.90;;;;;;4963301;28;20208;-63
2023/07/10 03:35:08;;;;;;;6.10;5.40;;;15.40;99.90;;;;;;4941494;28;20211;-63
2023/07/10 03:37:36;;;;;;;10.73;5.27;;;15.30;99.90;;;;;;4956444;28;20281;-63
2023/07/10 03:40:06;;;;;;;10.33;6.00;;;15.20;99.90;;;;;;4970993;28;20243;-63
2023/07/10 03:42:34;;;;;;;8.17;5.43;;;15.20;99.90;;;;;;4962362;28;20616;-63
2023/07/10 03:45:02;;;;;;;10.97;5.70;;;15.10;99.90;;;;;;4948687;29;20205;-63
2023/07/10 03:47:31;;;;;;;7.90;5.43;;;15.10;99.90;;;;;;4963479;28;20194;-63
2023/07/10 03:49:59;;;;;;;8.10;5.50;;;15.10;99.90;;;;;;4956599;28;20223;-63
2023/07/10 03:52:29;;;;;;;8.03;5.70;;;15.00;99.90;;;;;;4947748;28;20201;-63
2023/07/10 03:54:57;;;;;;;9.40;6.00;;;15.00;99.90;;;;;;4962486;28;20242;-63
2023/07/10 03:57:26;;;;;;;10.00;6.00;;;14.90;99.90;;;;;;4968254;28;20649;-63
2023/07/10 03:59:54;;;;;;;8.60;5.87;;;14.90;99.90;;;;;;4966532;28;20713;-63
2023/07/10 04:02:23;;;;;;;8.47;5.80;;;14.90;99.90;;;;;;4970167;28;20190;-63
2023/07/10 04:04:54;;;;;;;8.27;6.30;;;14.90;99.90;;;;;;4963460;28;20198;-63
2023/07/10 04:07:22;;;;;;;8.43;5.73;;;14.90;99.90;;;;;;4961220;28;20216;-63
2023/07/10 04:09:53;;;;;;;8.40;6.37;;;14.80;99.90;;;;;;4963003;28;20189;-63
2023/07/10 04:12:21;;;;;;;10.13;5.90;;;14.90;99.90;;;;;;4944935;28;20189;-63
2023/07/10 04:14:50;;;;;;;9.70;7.10;;;14.90;99.90;;;;;;4959327;28;20679;-64
2023/07/10 04:17:18;;;;;;;11.90;6.77;;;14.90;99.90;;;;;;4962090;28;20285;-64
2023/07/10 04:19:46;;;;;;;11.10;7.33;;;14.90;99.90;;;;;;4972368;28;20199;-63
2023/07/10 04:22:14;;;;;;;11.97;7.00;;;15.00;99.90;;;;;;4956333;28;20244;-64
2023/07/10 04:24:43;;;;;;;12.87;7.60;;;15.00;99.90;;;;;;4954471;28;20195;-63
2023/07/10 04:27:13;;;;;;;8.47;6.67;;;15.10;99.90;;;;;;4967886;28;20194;-63
2023/07/10 04:29:41;;;;;;;9.33;7.10;;;15.10;99.90;;;;;;4967968;28;20195;-63
2023/07/10 04:32:10;;;;;;;11.20;8.00;;;15.20;99.90;;;;;;4953094;28;20188;-63
2023/07/10 04:34:38;;;;;;;7.47;6.60;;;15.20;99.90;;;;;;4957205;28;20221;-63
2023/07/10 04:37:07;;;;;;;11.53;7.23;;;15.20;99.90;;;;;;4964016;28;20204;-63
2023/07/10 04:39:35;;;;;;;11.70;7.00;;;15.30;99.90;;;;;;4949592;28;20198;-63
2023/07/10 04:42:04;;;;;;;11.90;7.67;;;15.30;99.90;;;;;;4960371;28;20201;-63
2023/07/10 04:44:33;;;;;;;13.97;6.93;;;15.40;99.90;;;;;;4955590;28;20195;-63
2023/07/10 04:47:02;;;;;;;8.77;6.83;;;15.50;99.90;;;;;;4954023;28;20224;-63
2023/07/10 04:49:30;;;;;;;8.97;6.77;;;15.60;99.90;;;;;;4958351;28;20305;-63
2023/07/10 04:51:58;;;;;;;11.90;6.27;;;15.70;99.90;;;;;;4961879;28;20200;-63
2023/07/10 04:54:27;;;;;;;8.17;6.33;;;15.80;99.90;;;;;;4959212;28;20333;-63
2023/07/10 04:56:55;;;;;;;13.97;7.03;;;15.90;99.90;;;;;;4957052;28;20223;-63
2023/07/10 04:59:24;;;;;;;12.00;6.70;;;16.10;99.90;;;;;;4959033;28;20234;-63
2023/07/10 05:01:53;;;;;;;9.47;6.30;;;16.20;99.90;;;;;;4954141;28;20196;-63
2023/07/10 05:04:22;;;;;;;13.77;6.33;;;16.40;99.90;;;;;;4961447;28;20278;-63
2023/07/10 05:06:51;;;;;;;10.43;5.47;;;16.60;99.90;;;;;;4953759;28;20207;-63
2023/07/10 05:09:20;;;;;;;9.97;5.63;;;16.70;99.90;;;;;;4949252;28;20189;-63
2023/07/10 05:11:48;;;;;;;9.30;5.70;;;16.80;99.90;;;;;;4953701;28;20204;-63
2023/07/10 05:14:17;;;;;;;9.13;6.20;;;16.90;99.90;;;;;;4956893;28;20208;-63
2023/07/10 05:16:45;;;;;;;10.77;6.27;;;17.10;99.90;;;;;;4954606;28;20208;-64
2023/07/10 05:19:15;;;;;;;6.83;5.40;;;17.20;99.90;;;;;;4964145;28;20292;-63
2023/07/10 05:21:44;;;;;;;10.50;6.03;;;17.30;99.90;;;;;;4963097;28;20195;-63
2023/07/10 05:24:12;;;;;;;7.20;5.53;;;17.40;99.90;;;;;;4957261;28;20188;-64
2023/07/10 05:26:41;;;;;;;7.53;5.27;;;17.60;99.90;;;;;;4962192;28;20203;-63
2023/07/10 05:29:10;;;;;;;8.33;5.50;;;17.70;99.90;;;;;;4963861;28;20189;-63
2023/07/10 05:31:38;;;;;;;9.23;5.43;;;17.80;99.90;;;;;;4956795;28;20700;-63
2023/07/10 05:34:06;;;;;;;8.30;5.30;;;18.00;99.90;;;;;;4961916;28;20212;-63
2023/07/10 05:36:36;;;;;;;7.17;5.27;;;18.10;99.20;;;;;;4945642;29;20223;-63
2023/07/10 05:39:05;;;;;;;8.43;5.17;;;18.20;96.90;;;;;;4958776;28;20207;-63
2023/07/10 05:41:34;;;;;;;10.00;4.90;;;18.40;95.20;;;;;;4963508;28;20688;-63
2023/07/10 05:44:06;;;;;;;6.83;4.17;;;18.50;92.80;;;;;;4958175;28;20223;-63
2023/07/10 05:46:34;;;;;;;6.33;4.23;;;18.70;90.60;;;;;;4971003;28;20187;-63
2023/07/10 05:49:02;;;;;;;9.93;4.93;;;18.90;91.80;;;;;;4956753;28;20220;-60
2023/07/10 05:51:31;;;;;;;8.07;4.37;;;19.00;80.80;;;;;;4969771;28;20197;-61
2023/07/10 05:54:01;;;;;;;6.83;4.07;;;19.20;82.60;;;;;;4942321;29;20237;-62
2023/07/10 05:56:29;;;;;;;6.40;3.53;;;19.30;77.20;;;;;;4939946;29;20222;-62
2023/07/10 05:58:59;;;;;;;5.70;3.60;;;19.50;63.30;;;;;;4938829;29;20561;-62
2023/07/10 06:01:27;;;;;;;6.20;3.43;;;19.70;45.80;;;;;;4930699;29;20192;-62
2023/07/10 06:03:56;;;;;;;5.57;3.20;;;19.70;41.80;;;;;;4941068;29;20189;-62
2023/07/10 06:06:27;;;;;;;9.03;3.47;;;19.90;34.40;;;;;;4936905;29;20201;-63
2023/07/10 06:08:55;;;;;;;6.80;3.23;;;20.10;39.50;;;;;;4945758;28;20188;-61
2023/07/10 06:11:25;;;;;;;7.40;3.00;;;20.20;22.50;;;;;;4940676;29;20602;-61
2023/07/10 06:13:53;;;;;;;5.33;3.10;;;20.40;16.70;;;;;;4944817;28;20212;-62
2023/07/10 06:16:22;;;;;;;5.93;2.87;;;20.40;1.00;;;;;;4937508;29;20202;-62
2023/07/10 06:18:50;;;;;;;7.77;2.80;;;20.60;1.00;;;;;;4946318;29;20193;-61
2023/07/10 06:21:18;;;;;;;3.23;2.80;;;20.70;1.00;;;;;;4938877;29;20201;-61
2023/07/10 06:23:47;;;;;;;6.67;3.07;;;21.00;1.00;;;;;;4944727;29;20197;-62
2023/07/10 06:26:15;;;;;;;3.93;2.50;;;21.20;1.00;;;;;;4942932;29;20543;-61
2023/07/10 06:28:45;;;;;;;4.70;2.50;;;21.40;1.00;;;;;;4952824;29;20198;-62
2023/07/10 06:31:13;;;;;;;4.90;2.47;;;21.50;1.00;;;;;;4943914;29;20207;-62
2023/07/10 06:33:42;;;;;;;5.30;2.60;;;21.60;1.00;;;;;;4933977;29;20199;-62
2023/07/10 06:36:10;;;;;;;6.70;2.20;;;21.90;1.00;;;;;;4947209;29;20203;-62
2023/07/10 06:38:39;;;;;;;4.37;2.43;;;22.00;1.00;;;;;;4942352;29;20197;-62
2023/07/10 06:41:10;;;;;;;3.97;1.90;;;22.10;1.00;;;;;;4938117;29;20200;-62
2023/07/10 06:43:41;;;;;;;3.73;1.80;;;22.20;1.00;;;;;;4955317;29;20196;-62
2023/07/10 06:46:11;;;;;;;2.43;1.90;;;22.30;1.00;;;;;;4943456;29;20276;-62
2023/07/10 06:48:39;;;;;;;3.57;1.87;;;22.30;1.00;;;;;;4941128;28;20196;-62
2023/07/10 06:51:08;;;;;;;2.07;1.70;;;22.50;1.00;;;;;;4942545;28;20204;-62
2023/07/10 06:53:36;;;;;;;3.60;1.90;;;22.60;1.00;;;;;;4947464;29;20204;-62
2023/07/10 06:56:05;;;;;;;3.97;1.90;;;22.80;99.90;;;;;;4958543;28;20204;-61
2023/07/10 06:58:35;;;;;;;2.50;1.73;;;22.90;99.90;;;;;;4961535;28;20560;-62
2023/07/10 07:01:05;;;;;;;5.50;1.90;;;23.10;99.90;;;;;;4959041;28;20527;-62
2023/07/10 07:03:36;;;;;;;3.55;1.98;;;23.10;99.90;;;;;;4973956;28;20641;-62
2023/07/10 07:06:07;;;;;;;1.60;1.50;;;23.30;99.90;;;;;;4961825;28;20253;-63
2023/07/10 07:08:36;;;;;;;2.45;1.80;;;23.80;90.00;;;;;;4966607;28;20195;-62
2023/07/10 07:11:04;;;;;;;1.70;1.40;;;24.00;1.00;;;;;;4970176;28;20198;-62
2023/07/10 07:13:33;;;;;;;2.53;1.60;;;24.10;1.00;;;;;;4956253;28;20659;-62
2023/07/10 07:16:01;;;;;;;3.42;1.70;;;24.10;1.00;;;;;;4952667;28;20223;-62
2023/07/10 07:18:31;;;;;;;2.83;1.73;;;24.10;1.00;;;;;;4954635;28;20205;-63
2023/07/10 07:21:01;;;;;;;3.45;1.45;;;24.50;1.00;;;;;;4959405;28;20210;-62
2023/07/10 07:23:29;;;;;;;4.22;1.80;;;24.70;1.00;;;;;;4957513;28;20196;-62
2023/07/10 07:25:58;;;;;;;3.38;1.70;;;25.00;1.00;;;;;;4953997;28;20192;-62
2023/07/10 07:28:27;;;;;;;3.20;1.92;;;25.30;99.90;;;;;;4960235;28;20274;-62
2023/07/10 07:31:02;;;;;;;2.00;1.77;;;25.40;99.90;;;;;;4954848;28;20207;-62
2023/07/10 07:33:31;;;;;;;1.63;1.38;;;25.50;99.90;;;;;;4966907;28;20199;-62
2023/07/10 07:36:04;;;;;;;1.65;1.55;;;25.70;99.90;;;;;;4960569;28;20207;-62
2023/07/10 07:38:33;;;;;;;2.60;1.63;;;26.10;99.90;;;;;;4963252;28;20200;-61
2023/07/10 07:41:02;;;;;;;9.23;1.90;;;27.50;1.00;;;;;;4955974;28;20198;-62
2023/07/10 07:43:30;;;;;;;4.20;1.60;;;27.40;1.00;;;;;;4965638;28;20202;-62
2023/07/10 07:45:58;;;;;;;3.95;1.60;;;27.10;1.00;;;;;;4968205;28;20184;-62
2023/07/10 07:48:27;;;;;;;6.20;1.55;;;27.70;99.90;;;;;;4974927;28;20223;-62
2023/07/10 07:50:58;;;;;;;3.92;1.63;;;27.80;99.90;;;;;;4974005;28;20680;-62
2023/07/10 07:53:28;;;;;;;4.63;1.70;;;27.50;99.90;;;;;;4962474;28;20552;-62
2023/07/10 07:55:57;;;;;;;2.70;1.55;;;27.60;99.90;;;;;;4949569;28;20204;-62
2023/07/10 07:58:25;;;;;;;4.60;1.92;;;27.80;1.00;;;;;;4957703;28;20196;-62
2023/07/10 08:00:54;;;;;;;1.90;1.50;;;28.30;99.90;;;;;;4957358;28;20202;-62
2023/07/10 08:03:22;;;;;;;3.25;1.77;;;28.70;15.40;;;;;;4955704;28;20219;-62
2023/07/10 08:05:50;;;;;;;4.10;1.50;;;28.80;1.00;;;;;;4947884;28;20197;-62
2023/07/10 08:08:19;;;;;;;3.25;1.48;;;29.00;1.00;;;;;;4958717;28;20196;-62
2023/07/10 08:10:50;;;;;;;3.80;1.40;;;29.70;1.00;;;;;;4961965;28;20216;-62
2023/07/10 08:13:19;;;;;;;2.80;1.40;;;29.70;1.00;;;;;;4966790;28;20196;-62
2023/07/10 08:15:48;;;;;;;2.63;1.48;;;29.40;1.00;;;;;;4958143;28;20216;-62
2023/07/10 08:18:16;;;;;;;1.70;1.58;;;29.30;1.00;;;;;;4970306;28;20206;-62
2023/07/10 08:20:44;;;;;;;1.98;1.30;;;29.50;1.00;;;;;;4970300;28;20200;-61
2023/07/10 08:23:13;;;;;;;2.85;1.60;;;29.70;99.90;;;;;;4956403;28;20528;-62
2023/07/10 08:25:41;;;;;;;3.25;1.58;;;29.80;99.90;;;;;;4954987;28;20505;-62
2023/07/10 08:28:11;;;;;;;3.22;1.58;;;30.70;1.00;;;;;;4969911;28;20195;-62
2023/07/10 08:30:40;;;;;;;2.35;1.70;;;31.10;67.80;;;;;;4968884;28;20612;-62
2023/07/10 08:33:10;;;;;;;2.45;1.30;;;30.30;1.00;;;;;;4963109;28;20196;-62
2023/07/10 08:35:39;;;;;;;2.13;1.38;;;29.60;1.00;;;;;;4956261;28;20201;-62
2023/07/10 08:38:07;;;;;;;2.88;1.50;;;30.00;1.00;;;;;;4957378;28;20204;-62
2023/07/10 08:40:38;;;;;;;4.32;1.70;;;30.60;99.90;;;;;;4967130;28;20218;-62
2023/07/10 08:43:30;;;;;;;4.28;1.60;;;31.00;99.90;;;;;;4960128;28;20218;-62
2023/07/10 08:46:04;;;;;;;2.30;1.42;;;31.00;1.00;;;;;;4960079;28;20194;-62
2023/07/10 08:48:38;;;;;;;2.88;1.40;;;31.80;99.90;;;;;;4960730;28;20195;-62
2023/07/10 08:51:22;;;;;;;2.92;1.58;;;31.70;99.90;;;;;;4965005;28;20742;-62
2023/07/10 08:53:57;;;;;;;2.78;1.50;;;31.30;7.20;;;;;;4971742;28;20223;-62
2023/07/10 08:56:33;;;;;;;4.45;1.42;;;31.00;99.90;;;;;;4960511;28;20670;-62
2023/07/10 08:59:14;;;;;;;3.65;1.70;;;31.50;99.90;;;;;;4967506;28;20214;-62
2023/07/10 09:01:46;;;;;;;2.20;1.40;;;31.80;6.60;;;;;;4943631;28;20837;-62
2023/07/10 09:04:17;;;;;;;2.60;1.65;;;32.10;19.10;;;;;;4957760;28;20195;-62
2023/07/10 09:06:49;;;;;;;4.05;1.40;;;32.40;1.00;;;;;;4956195;28;20547;-62
2023/07/10 09:09:32;;;;;;;3.95;1.50;;;32.40;1.00;;;;;;4966610;28;20829;-62
2023/07/10 09:12:05;;;;;;;4.28;1.70;;;32.00;99.90;;;;;;4957588;28;20208;-62
2023/07/10 09:14:42;;;;;;;1.77;1.40;;;31.90;99.90;;;;;;4954521;28;20196;-62
2023/07/10 09:17:20;;;;;;;2.25;1.30;;;31.70;1.00;;;;;;4962783;28;20235;-62
2023/07/10 09:19:54;;;;;;;2.53;1.55;;;31.90;1.00;;;;;;4957912;28;20214;-62
2023/07/10 09:22:22;;;;;;;6.68;1.67;;;32.40;99.90;;;;;;4954566;28;20299;-62
2023/07/10 09:24:51;;;;;;;5.25;1.85;;;32.70;99.90;;;;;;4958535;28;20274;-62
2023/07/10 09:27:19;;;;;;;4.50;1.60;;;32.70;99.90;;;;;;4942106;29;20678;-62
2023/07/10 09:29:52;;;;;;;2.88;1.55;;;32.20;99.90;;;;;;4962448;28;20780;-63
2023/07/10 09:32:21;;;;;;;2.20;1.15;;;31.70;1.00;;;;;;4942939;28;20195;-62
2023/07/10 09:34:53;;;;;;;3.78;1.75;;;32.30;99.90;;;;;;4963996;28;20192;-62
2023/07/10 09:37:26;;;;;;;2.75;1.70;;;32.90;99.90;;;;;;4963317;28;20207;-62
2023/07/10 09:39:54;;;;;;;2.50;1.50;;;33.20;99.90;;;;;;4959893;28;20192;-62
2023/07/10 09:42:32;;;;;;;5.75;2.00;;;32.70;1.00;;;;;;4964421;28;20379;-62
2023/07/10 09:45:02;;;;;;;3.95;1.77;;;32.50;1.00;;;;;;4966610;28;20194;-62
2023/07/10 09:47:40;;;;;;;2.80;1.58;;;32.20;95.90;;;;;;4966210;28;20192;-62
2023/07/10 09:50:15;;;;;;;3.55;1.33;;;32.00;99.90;;;;;;4940417;28;20206;-62
2023/07/10 09:52:51;;;;;;;4.25;1.80;;;31.50;99.90;;;;;;4965076;28;20210;-62
2023/07/10 09:55:19;;;;;;;2.45;1.52;;;30.90;99.90;;;;;;4960765;28;20579;-61
2023/07/10 09:57:54;;;;;;;3.13;1.50;;;30.60;1.00;;;;;;4965627;28;20219;-62
2023/07/10 10:00:25;;;;;;;2.97;1.58;;;30.90;1.00;;;;;;4956233;28;20199;-62
2023/07/10 10:02:57;;;;;;;4.32;1.77;;;31.40;99.90;;;;;;4937120;28;20295;-62
2023/07/10 10:05:25;;;;;;;4.00;1.70;;;31.80;99.90;;;;;;4953730;28;20192;-62
2023/07/10 10:08:01;;;;;;;1.77;1.52;;;31.90;99.90;;;;;;4967247;28;20199;-62
2023/07/10 10:10:31;;;;;;;1.40;1.30;;;31.10;99.90;;;;;;4954573;28;20201;-62
2023/07/10 10:13:06;;;;;;;4.90;1.85;;;30.60;1.00;;;;;;4969503;28;20196;-62
2023/07/10 10:15:44;;;;;;;3.40;1.60;;;30.30;1.00;;;;;;4959007;28;20211;-62
2023/07/10 10:18:27;;;;;;;1.70;1.60;;;29.50;1.00;;;;;;4969292;28;20544;-61
2023/07/10 10:21:02;;;;;;;2.30;1.65;;;28.70;1.00;;;;;;4942227;28;20183;-61
2023/07/10 10:23:32;;;;;;;3.00;1.85;;;27.90;25.70;;;;;;4965526;28;20213;-61
2023/07/10 10:26:24;;;;;;;2.22;1.42;;;28.50;1.00;;;;;;4966498;28;20564;-61
2023/07/10 10:29:14;;;;;;;2.92;1.90;;;29.40;1.00;;;;;;4954350;28;20200;-62
2023/07/10 10:31:51;;;;;;;2.38;1.42;;;30.60;1.00;;;;;;4965409;28;20202;-61
2023/07/10 10:34:32;;;;;;;4.38;1.80;;;31.70;99.90;;;;;;4967510;28;20207;-62
2023/07/10 10:37:12;;;;;;;2.30;1.67;;;32.40;1.00;;;;;;4968885;28;20207;-61
2023/07/10 10:39:46;;;;;;;1.75;1.60;;;32.20;1.00;;;;;;4946103;28;20191;-62
2023/07/10 10:42:23;;;;;;;3.85;1.83;;;32.50;1.00;;;;;;4962828;28;20547;-61
2023/07/10 10:45:00;;;;;;;3.50;1.60;;;32.40;99.90;;;;;;4953265;28;20198;-62
2023/07/10 10:47:40;;;;;;;4.07;1.75;;;32.50;99.90;;;;;;4967483;28;20668;-61
2023/07/10 10:50:29;;;;;;;1.90;1.80;;;32.80;99.90;;;;;;4957603;28;20191;-62
2023/07/10 10:53:14;;;;;;;3.70;1.90;;;32.40;99.90;;;;;;4965028;28;20198;-61
2023/07/10 10:55:51;;;;;;;2.45;1.73;;;31.70;99.90;;;;;;4956299;28;20234;-61
2023/07/10 10:58:34;;;;;;;3.53;1.60;;;30.90;99.90;;;;;;4971505;28;20231;-61
2023/07/10 11:01:22;;;;;;;2.45;1.63;;;30.80;1.00;;;;;;4970237;28;20219;-61
2023/07/10 11:03:58;;;;;;;3.90;1.90;;;31.20;99.90;;;;;;4972566;28;20637;-61
2023/07/10 11:06:46;;;;;;;3.38;1.70;;;31.70;1.00;;;;;;4970311;28;20195;-61
2023/07/10 11:09:18;;;;;;;3.88;2.10;;;31.90;1.00;;;;;;4955665;28;20195;-61
2023/07/10 11:11:47;;;;;;;5.68;1.65;;;32.20;1.00;;;;;;4956353;28;20224;-62
2023/07/10 11:14:16;;;;;;;4.18;2.13;;;32.30;1.00;;;;;;4956456;28;20554;-62
2023/07/10 11:16:45;;;;;;;2.15;1.80;;;32.10;99.90;;;;;;4965933;28;20264;-62
2023/07/10 11:19:21;;;;;;;3.53;2.08;;;32.00;1.00;;;;;;4969177;28;20191;-61
2023/07/10 11:21:51;;;;;;;2.10;1.73;;;31.80;1.00;;;;;;4957278;28;20204;-61
2023/07/10 11:24:38;;;;;;;3.25;2.15;;;31.10;1.00;;;;;;4964496;28;20537;-62
2023/07/10 11:27:22;;;;;;;5.72;2.05;;;30.80;1.00;;;;;;4970590;28;20198;-62
2023/07/10 11:29:56;;;;;;;3.55;2.10;;;31.00;1.00;;;;;;4952054;28;20231;-62
2023/07/10 11:32:27;;;;;;;4.88;1.85;;;31.30;1.00;;;;;;4963091;28;20187;-62
2023/07/10 11:35:14;;;;;;;3.15;2.25;;;31.50;1.00;;;;;;4961267;28;20188;-62
2023/07/10 11:38:15;;;;;;;2.53;2.00;;;31.20;1.00;;;;;;4962447;28;20642;-62
2023/07/10 11:41:00;;;;;;;1.88;1.77;;;31.40;1.00;;;;;;4955624;28;20299;-61
2023/07/10 11:44:11;;;;;;;4.38;2.13;;;31.50;1.00;;;;;;4947535;28;20204;-61
2023/07/10 11:47:10;;;;;;;7.65;2.30;;;31.30;1.00;;;;;;4950943;28;20251;-62
2023/07/10 11:49:47;;;;;;;4.18;1.90;;;30.90;1.00;;;;;;4961999;28;20201;-63
2023/07/10 11:52:31;;;;;;;3.50;2.15;;;30.70;1.00;;;;;;4966346;28;20213;-62
2023/07/10 11:55:13;;;;;;;3.70;2.22;;;31.00;1.00;;;;;;4936973;28;20244;-62
2023/07/10 11:57:41;;;;;;;3.17;2.08;;;30.70;1.00;;;;;;4959252;28;20261;-62
2023/07/10 12:00:27;;;;;;;3.28;2.30;;;30.80;1.00;;;;;;4941125;29;20193;-61
2023/07/10 12:03:00;;;;;;;6.38;2.13;;;30.60;1.00;;;;;;4969632;28;20201;-62
2023/07/10 12:05:35;;;;;;;4.30;2.28;;;30.30;1.00;;;;;;4963134;28;20202;-61
2023/07/10 12:08:11;;;;;;;4.93;2.00;;;29.70;1.00;;;;;;4962067;28;20227;-61
2023/07/10 12:10:41;;;;;;;8.68;2.45;;;29.70;48.60;;;;;;4958426;28;20309;-61
2023/07/10 12:13:18;;;;;;;6.03;2.13;;;29.90;99.90;;;;;;4960487;28;20206;-62
2023/07/10 12:15:48;;;;;;;5.47;2.20;;;30.00;1.00;;;;;;4956338;28;20726;-62
2023/07/10 12:18:19;;;;;;;5.38;2.30;;;30.20;1.00;;;;;;4962891;28;20547;-61
2023/07/10 12:20:51;;;;;;;3.78;2.03;;;30.10;99.90;;;;;;4967941;28;20209;-61
2023/07/10 12:23:22;;;;;;;4.88;2.25;;;29.90;99.90;;;;;;4955384;28;20197;-62
2023/07/10 12:25:52;;;;;;;1.92;1.83;;;29.60;99.90;;;;;;4944317;29;20205;-61
2023/07/10 12:28:23;;;;;;;4.65;2.10;;;29.70;1.00;;;;;;4964144;28;20656;-61
2023/07/10 12:30:59;;;;;;;6.28;2.10;;;29.50;99.90;;;;;;4961299;28;20599;-61
2023/07/10 12:33:34;;;;;;;3.30;2.05;;;29.80;93.40;;;;;;4964797;28;20587;-61
2023/07/10 12:36:05;;;;;;;4.43;2.20;;;30.10;1.00;;;;;;4974860;28;20632;-61
2023/07/10 12:38:37;;;;;;;2.53;2.00;;;29.90;1.00;;;;;;4968532;28;20658;-61
2023/07/10 12:41:07;;;;;;;2.03;1.83;;;29.50;1.00;;;;;;4960200;28;20192;-62
2023/07/10 12:43:36;;;;;;;3.15;2.30;;;29.30;1.00;;;;;;4966238;28;20192;-61
2023/07/10 12:46:15;;;;;;;2.10;1.83;;;29.30;99.90;;;;;;4967183;28;20196;-61
2023/07/10 12:48:43;;;;;;;3.97;2.08;;;29.10;99.90;;;;;;4963006;28;20200;-61
2023/07/10 12:51:19;;;;;;;3.00;1.67;;;29.20;99.90;;;;;;4962303;28;20206;-61
2023/07/10 12:53:49;;;;;;;5.95;2.47;;;29.40;1.00;;;;;;4964872;28;20234;-61
2023/07/10 12:56:27;;;;;;;3.08;2.10;;;29.50;1.00;;;;;;4960203;28;20653;-62
2023/07/10 12:58:58;;;;;;;5.22;2.20;;;29.70;1.00;;;;;;4953423;28;20689;-61
2023/07/10 13:01:32;;;;;;;2.03;1.90;;;29.90;1.00;;;;;;4963864;28;20218;-62
2023/07/10 13:04:16;;;;;;;2.60;1.98;;;29.70;99.90;;;;;;4961381;28;20197;-61
2023/07/10 13:06:45;;;;;;;1.88;1.77;;;29.60;99.90;;;;;;4963152;28;20209;-61
2023/07/10 13:09:23;;;;;;;3.13;1.90;;;29.40;1.00;;;;;;4970267;28;20188;-61
2023/07/10 13:11:52;;;;;;;7.65;2.40;;;29.20;1.00;;;;;;4954653;28;20686;-61
2023/07/10 13:14:27;;;;;;;2.97;1.88;;;29.00;1.00;;;;;;4957741;28;20288;-61